Tzoanna Vi — SYHY — position and weather

sailwx.info

Track history (hours):
 
Tides and Currents Weather Stations Pressure Air Temp Water Temp Dewpoint Dewpoint Depression Visibility Wind Speed Wind Dir Waves Ship Positions

Tzoanna Vi

Last reported at 2017-Apr-27 11:06 UTC. Time now 2017-Apr-27 18:53 UTC.
Position N 38°07' E 024°06'.

Length 84 m; draft 5.6 m.

Type: Cargo ship. MMSI: 237991700.

Date/timePositionNaut miles runAvg speedWind from/ knotsBaromVisibWave heightAir tempDewpointWater temp
2017-Apr-27 11:06N 38°07' E 024°06'4 8.3
2017-Apr-27 10:38N 38°03' E 024°06'1 8.3
2017-Apr-27 10:29N 38°02' E 024°06'4 8.3
2017-Apr-27 09:59N 37°58' E 024°06'4 8.0
2017-Apr-27 09:29N 37°54' E 024°06'20 6.1
2017-Apr-27 06:12N 37°38' E 023°50'2 8.0
2017-Apr-27 05:55N 37°38' E 023°47'3 7.8
2017-Apr-27 05:30N 37°39' E 023°43'4 8.0
2017-Apr-27 05:00N 37°42' E 023°41'4 8.2
2017-Apr-27 04:30N 37°46' E 023°38'4 8.1
2017-Apr-27 04:01N 37°49' E 023°36'4 7.8
2017-Apr-27 03:30N 37°50' E 023°31'4 8.0
2017-Apr-27 03:00N 37°51' E 023°26'4 8.1
2017-Apr-27 02:30N 37°51' E 023°21'4 8.2
2017-Apr-27 02:01N 37°52' E 023°16'4 8.0
2017-Apr-27 01:30N 37°53' E 023°11'4 8.2
2017-Apr-27 01:00N 37°53' E 023°06'4 7.8
2017-Apr-27 00:30N 37°55' E 023°01'4 3.3
2017-Apr-26 23:22N 37°57' E 022°58'20 1.0
2017-Apr-26 03:43N 38°10' E 022°39'2 9.9
2017-Apr-26 03:30N 38°09' E 022°41'21 9.1
2017-Apr-26 01:14N 37°55' E 023°00'1 4.6
2017-Apr-26 01:00N 37°55' E 023°02'4 8.7
2017-Apr-26 00:30N 37°53' E 023°07'5 9.2
2017-Apr-26 00:00N 37°52' E 023°12'5 9.3
2017-Apr-25 23:30N 37°51' E 023°18'5 9.2
2017-Apr-25 23:00N 37°50' E 023°24'4 8.6
2017-Apr-25 22:30N 37°47' E 023°28'0 0.9
2017-Apr-25 22:00N 37°46' E 023°28'0 0.0
2017-Apr-25 21:30N 37°46' E 023°28'0 0.0
2017-Apr-25 21:00N 37°46' E 023°28'0 0.0
2017-Apr-25 20:30N 37°46' E 023°28'0 0.0
2017-Apr-25 20:00N 37°46' E 023°28'0 0.0
2017-Apr-25 19:30N 37°46' E 023°28'0 0.0
2017-Apr-25 19:00N 37°46' E 023°28'0 0.0
2017-Apr-25 18:30N 37°46' E 023°28'0 0.0
2017-Apr-25 18:00N 37°46' E 023°28'0 0.0
2017-Apr-25 17:30N 37°46' E 023°28'0 0.0
2017-Apr-25 17:00N 37°46' E 023°28'0 0.0
2017-Apr-25 16:30N 37°46' E 023°28'1 2.4
2017-Apr-25 16:00N 37°47' E 023°29'4 8.3
2017-Apr-25 15:30N 37°48' E 023°35'4 8.3
2017-Apr-25 15:00N 37°49' E 023°40'4 8.5
2017-Apr-25 14:30N 37°45' E 023°43'8 8.3
2017-Apr-25 13:30N 37°39' E 023°50'5 9.0
2017-Apr-25 13:00N 37°38' E 023°56'7 9.1
2017-Apr-25 12:11N 37°37' E 024°05'2 8.7
2017-Apr-25 11:57N 37°38' E 024°07'9 8.9
2017-Apr-25 10:58N 37°44' E 024°16'4 8.8
2017-Apr-25 10:30N 37°46' E 024°19'  
2017-Apr-20 15:27N 38°22' E 023°47'3 0.1
2017-Apr-18 22:13N 38°22' E 023°52'2 7.6
2017-Apr-18 22:00N 38°22' E 023°49'  
Track history (hours):
 
Tides and Currents Weather Stations Pressure Air Temp Water Temp Dewpoint Dewpoint Depression Visibility Wind Speed Wind Dir Waves Ship Positions

Tzoanna Vi

Last reported at 2017-Apr-27 11:06 UTC. Time now 2017-Apr-27 18:53 UTC.
Position N 38°07' E 024°06'.

Length 84 m; draft 5.6 m.

Type: Cargo ship. MMSI: 237991700.

Date/timePositionNaut miles runAvg speedWind from/ knotsBaromVisibWave heightAir tempDewpointWater temp
2017-Apr-27 11:06N 38°07' E 024°06'4 8.3
2017-Apr-27 10:38N 38°03' E 024°06'1 8.3
2017-Apr-27 10:29N 38°02' E 024°06'4 8.3
2017-Apr-27 09:59N 37°58' E 024°06'4 8.0
2017-Apr-27 09:29N 37°54' E 024°06'20 6.1
2017-Apr-27 06:12N 37°38' E 023°50'2 8.0
2017-Apr-27 05:55N 37°38' E 023°47'3 7.8
2017-Apr-27 05:30N 37°39' E 023°43'4 8.0
2017-Apr-27 05:00N 37°42' E 023°41'4 8.2
2017-Apr-27 04:30N 37°46' E 023°38'4 8.1
2017-Apr-27 04:01N 37°49' E 023°36'4 7.8
2017-Apr-27 03:30N 37°50' E 023°31'4 8.0
2017-Apr-27 03:00N 37°51' E 023°26'4 8.1
2017-Apr-27 02:30N 37°51' E 023°21'4 8.2
2017-Apr-27 02:01N 37°52' E 023°16'4 8.0
2017-Apr-27 01:30N 37°53' E 023°11'4 8.2
2017-Apr-27 01:00N 37°53' E 023°06'4 7.8
2017-Apr-27 00:30N 37°55' E 023°01'4 3.3
2017-Apr-26 23:22N 37°57' E 022°58'20 1.0
2017-Apr-26 03:43N 38°10' E 022°39'2 9.9
2017-Apr-26 03:30N 38°09' E 022°41'21 9.1
2017-Apr-26 01:14N 37°55' E 023°00'1 4.6
2017-Apr-26 01:00N 37°55' E 023°02'4 8.7
2017-Apr-26 00:30N 37°53' E 023°07'5 9.2
2017-Apr-26 00:00N 37°52' E 023°12'5 9.3
2017-Apr-25 23:30N 37°51' E 023°18'5 9.2
2017-Apr-25 23:00N 37°50' E 023°24'4 8.6
2017-Apr-25 22:30N 37°47' E 023°28'0 0.9
2017-Apr-25 22:00N 37°46' E 023°28'0 0.0
2017-Apr-25 21:30N 37°46' E 023°28'0 0.0
2017-Apr-25 21:00N 37°46' E 023°28'0 0.0
2017-Apr-25 20:30N 37°46' E 023°28'0 0.0
2017-Apr-25 20:00N 37°46' E 023°28'0 0.0
2017-Apr-25 19:30N 37°46' E 023°28'0 0.0
2017-Apr-25 19:00N 37°46' E 023°28'0 0.0
2017-Apr-25 18:30N 37°46' E 023°28'0 0.0
2017-Apr-25 18:00N 37°46' E 023°28'0 0.0
2017-Apr-25 17:30N 37°46' E 023°28'0 0.0
2017-Apr-25 17:00N 37°46' E 023°28'0 0.0
2017-Apr-25 16:30N 37°46' E 023°28'1 2.4
2017-Apr-25 16:00N 37°47' E 023°29'4 8.3
2017-Apr-25 15:30N 37°48' E 023°35'4 8.3
2017-Apr-25 15:00N 37°49' E 023°40'4 8.5
2017-Apr-25 14:30N 37°45' E 023°43'8 8.3
2017-Apr-25 13:30N 37°39' E 023°50'5 9.0
2017-Apr-25 13:00N 37°38' E 023°56'7 9.1
2017-Apr-25 12:11N 37°37' E 024°05'2 8.7
2017-Apr-25 11:57N 37°38' E 024°07'9 8.9
2017-Apr-25 10:58N 37°44' E 024°16'4 8.8
2017-Apr-25 10:30N 37°46' E 024°19'  
2017-Apr-20 15:27N 38°22' E 023°47'3 0.1
2017-Apr-18 22:13N 38°22' E 023°52'2 7.6
2017-Apr-18 22:00N 38°22' E 023°49'  

Dump ship's entire track history